createdAt,value
2019-05-05T00:02:49.237Z,99.60
2019-05-05T00:05:44.906Z,99.10
2019-05-05T00:08:16.707Z,98.40
2019-05-05T00:11:05.704Z,98.50
2019-05-05T00:13:55.235Z,98.60
2019-05-05T00:16:44.568Z,98.30
2019-05-05T00:19:29.474Z,98.10
2019-05-05T00:21:48.395Z,98.40
2019-05-05T00:24:20.400Z,97.90
2019-05-05T00:26:50.875Z,98.10
2019-05-05T00:29:22.511Z,98.50
2019-05-05T00:31:54.689Z,98.30
2019-05-05T00:34:25.611Z,98.00
2019-05-05T00:36:56.507Z,97.90
2019-05-05T00:39:29.878Z,97.80
2019-05-05T00:42:00.798Z,97.90
2019-05-05T00:44:31.407Z,97.80
2019-05-05T00:47:29.023Z,97.90
2019-05-05T00:49:59.948Z,97.90
2019-05-05T00:52:30.863Z,98.20
2019-05-05T00:55:01.727Z,98.60
2019-05-05T00:57:32.219Z,98.40
2019-05-05T01:00:05.012Z,98.10
2019-05-05T01:02:42.415Z,98.20
2019-05-05T01:05:28.787Z,98.10
2019-05-05T01:08:00.126Z,97.80
2019-05-05T01:10:30.842Z,97.40
2019-05-05T01:13:01.311Z,97.40
2019-05-05T01:15:31.799Z,97.10
2019-05-05T01:18:04.582Z,97.30
2019-05-05T01:20:34.963Z,97.30
2019-05-05T01:23:05.768Z,96.20
2019-05-05T01:25:36.288Z,96.50
2019-05-05T01:28:08.206Z,97.40
2019-05-05T01:30:44.406Z,97.40
2019-05-05T01:33:27.321Z,97.30
2019-05-05T01:35:58.588Z,97.70
2019-05-05T01:38:44.556Z,97.80
2019-05-05T01:41:21.952Z,98.00
2019-05-05T01:43:54.200Z,97.70
2019-05-05T01:46:24.704Z,97.70
2019-05-05T01:48:55.191Z,98.00
2019-05-05T01:51:27.304Z,98.20
2019-05-05T01:53:58.121Z,98.40
2019-05-05T01:56:29.325Z,98.60
2019-05-05T01:59:00.038Z,98.40
2019-05-05T02:01:30.636Z,98.50
2019-05-05T02:04:01.206Z,98.50
2019-05-05T02:06:31.726Z,97.80
2019-05-05T02:09:05.226Z,96.70
2019-05-05T02:11:35.370Z,97.10
2019-05-05T02:14:06.224Z,97.20
2019-05-05T02:16:37.187Z,97.50
2019-05-05T02:19:07.670Z,97.50
2019-05-05T02:21:38.171Z,97.00
2019-05-05T02:24:09.340Z,97.00
2019-05-05T02:26:40.123Z,97.40
2019-05-05T02:29:19.040Z,97.60
2019-05-05T02:32:08.393Z,97.40
2019-05-05T02:34:45.682Z,97.10
2019-05-05T02:37:16.269Z,96.80
2019-05-05T02:39:57.913Z,96.90
2019-05-05T02:42:20.391Z,96.60
2019-05-05T02:44:51.252Z,95.50
2019-05-05T02:47:34.660Z,95.90
2019-05-05T02:50:07.680Z,96.30
2019-05-05T02:52:39.862Z,96.90
2019-05-05T02:55:11.959Z,97.10
2019-05-05T02:57:43.919Z,97.50
2019-05-05T03:00:40.387Z,97.50
2019-05-05T03:03:13.390Z,97.40
2019-05-05T03:05:43.562Z,97.90
2019-05-05T03:08:15.034Z,97.90
2019-05-05T03:10:45.734Z,97.90
2019-05-05T03:13:17.495Z,97.90
2019-05-05T03:15:54.986Z,97.80
2019-05-05T03:18:25.999Z,97.50
2019-05-05T03:21:04.563Z,97.50
2019-05-05T03:23:28.890Z,97.20
2019-05-05T03:25:59.375Z,97.00
2019-05-05T03:28:40.700Z,96.80
2019-05-05T03:31:15.543Z,96.80
2019-05-05T03:33:45.962Z,97.00
2019-05-05T03:36:17.162Z,97.40
2019-05-05T03:38:47.847Z,97.80
2019-05-05T03:41:37.295Z,97.70
2019-05-05T03:44:14.016Z,97.80
2019-05-05T03:46:44.002Z,97.60
2019-05-05T03:49:14.595Z,97.60
2019-05-05T03:51:45.572Z,98.00
2019-05-05T03:54:16.372Z,97.80
2019-05-05T03:56:47.156Z,97.00
2019-05-05T03:59:17.845Z,97.20
2019-05-05T04:02:14.165Z,97.50
2019-05-05T04:04:48.048Z,97.90
2019-05-05T04:07:18.758Z,98.30
2019-05-05T04:09:49.243Z,98.40
2019-05-05T04:12:20.226Z,98.60
2019-05-05T04:14:52.135Z,98.90
2019-05-05T04:17:41.546Z,99.30
2019-05-05T04:20:30.454Z,99.40
2019-05-05T04:23:00.975Z,99.90
2019-05-05T04:25:31.464Z,99.90
2019-05-05T04:28:04.240Z,99.90
2019-05-05T04:30:34.076Z,99.90
2019-05-05T04:33:05.900Z,99.90
2019-05-05T04:35:36.571Z,99.90
2019-05-05T04:38:08.055Z,99.90
2019-05-05T04:40:38.655Z,99.90
2019-05-05T04:43:09.820Z,99.90
2019-05-05T04:45:40.306Z,99.90
2019-05-05T04:48:19.033Z,99.90
2019-05-05T04:50:58.344Z,99.90
2019-05-05T04:53:37.818Z,99.90
2019-05-05T04:56:08.315Z,99.90
2019-05-05T04:58:38.780Z,99.90
2019-05-05T05:01:09.298Z,99.90
2019-05-05T05:03:54.596Z,99.90
2019-05-05T05:06:30.290Z,99.90
2019-05-05T05:09:00.774Z,99.90
2019-05-05T05:11:31.266Z,99.90
2019-05-05T05:14:03.736Z,99.90
2019-05-05T05:16:35.695Z,99.90
2019-05-05T05:19:05.947Z,99.90
2019-05-05T05:21:36.454Z,99.90
2019-05-05T05:24:07.530Z,99.90
2019-05-05T05:26:37.925Z,99.90
2019-05-05T05:29:08.427Z,99.90
2019-05-05T05:31:44.134Z,99.90
2019-05-05T05:34:14.864Z,99.90
2019-05-05T05:36:45.436Z,99.90
2019-05-05T05:39:33.671Z,99.90
2019-05-05T05:42:04.637Z,99.90
2019-05-05T05:44:54.145Z,99.90
2019-05-05T05:47:46.658Z,99.90
2019-05-05T05:50:27.141Z,99.90
2019-05-05T05:52:59.819Z,99.90
2019-05-05T05:55:30.315Z,99.90
2019-05-05T05:58:00.779Z,98.70
2019-05-05T06:00:31.271Z,98.80
2019-05-05T06:03:03.728Z,96.20
2019-05-05T06:05:34.540Z,94.70
2019-05-05T06:08:04.999Z,93.80
2019-05-05T06:10:35.511Z,94.00
2019-05-05T06:13:05.992Z,94.20
2019-05-05T06:15:37.075Z,93.10
2019-05-05T06:18:07.543Z,90.30
2019-05-05T06:20:38.064Z,86.80
2019-05-05T06:23:08.526Z,84.70
2019-05-05T06:25:39.018Z,81.10
2019-05-05T06:28:09.908Z,78.10
2019-05-05T06:30:40.419Z,74.50
2019-05-05T06:33:10.907Z,73.60
2019-05-05T06:35:41.820Z,69.10
2019-05-05T06:38:13.632Z,70.90
2019-05-05T06:41:01.808Z,67.90
2019-05-05T06:43:41.542Z,66.90
2019-05-05T06:46:14.621Z,63.20
2019-05-05T06:48:46.530Z,65.20
2019-05-05T06:51:17.028Z,64.00
2019-05-05T06:53:47.499Z,64.50
2019-05-05T06:56:17.954Z,63.60
2019-05-05T06:58:48.497Z,64.90
2019-05-05T07:01:18.957Z,62.50
2019-05-05T07:03:49.451Z,57.70
2019-05-05T07:06:24.043Z,58.30
2019-05-05T07:08:54.714Z,52.20
2019-05-05T07:11:25.393Z,52.80
2019-05-05T07:13:55.858Z,51.20
2019-05-05T07:16:26.262Z,50.40
2019-05-05T07:18:56.665Z,40.90
2019-05-05T07:21:27.170Z,45.10
2019-05-05T07:23:58.277Z,39.60
2019-05-05T07:26:28.690Z,38.70
2019-05-05T07:28:59.182Z,35.90
2019-05-05T07:31:29.588Z,35.00
2019-05-05T07:34:00.075Z,31.80
2019-05-05T07:36:44.469Z,30.80
2019-05-05T07:39:15.290Z,30.10
2019-05-05T07:41:45.793Z,27.30
2019-05-05T07:44:25.836Z,27.20
2019-05-05T07:46:48.406Z,26.40
2019-05-05T07:49:18.870Z,27.50
2019-05-05T07:51:49.443Z,28.80
2019-05-05T07:54:19.958Z,29.60
2019-05-05T07:56:50.451Z,30.00
2019-05-05T07:59:20.943Z,26.80
2019-05-05T08:01:54.797Z,26.10
2019-05-05T08:04:25.070Z,27.00
2019-05-05T08:06:55.560Z,25.00
2019-05-05T08:09:26.263Z,27.20
2019-05-05T08:11:56.674Z,25.70
2019-05-05T08:14:27.095Z,26.30
2019-05-05T08:17:28.922Z,24.70
2019-05-05T08:20:07.306Z,25.80
2019-05-05T08:22:37.807Z,27.10
2019-05-05T08:25:16.779Z,25.00
2019-05-05T08:28:09.311Z,24.40
2019-05-05T08:30:50.861Z,23.10
2019-05-05T08:33:21.359Z,24.10
2019-05-05T08:35:54.141Z,26.80
2019-05-05T08:38:25.202Z,24.50
2019-05-05T08:40:55.682Z,23.70
2019-05-05T08:43:26.208Z,21.10
2019-05-05T08:45:56.664Z,21.70
2019-05-05T08:48:28.516Z,22.90
2019-05-05T08:50:58.938Z,22.00
2019-05-05T08:53:41.473Z,18.80
2019-05-05T08:56:01.459Z,19.30
2019-05-05T08:58:34.257Z,19.50
2019-05-05T09:01:04.502Z,19.60
2019-05-05T09:03:35.041Z,20.00
2019-05-05T09:06:05.529Z,18.80
2019-05-05T09:08:35.967Z,20.00
2019-05-05T09:11:06.487Z,19.00
2019-05-05T09:13:37.022Z,21.10
2019-05-05T09:16:07.532Z,20.70
2019-05-05T09:18:57.810Z,21.00
2019-05-05T09:21:28.623Z,20.40
2019-05-05T09:24:03.269Z,21.70
2019-05-05T09:26:44.455Z,21.60
2019-05-05T09:29:34.761Z,20.90
2019-05-05T09:32:05.343Z,20.60
2019-05-05T09:34:35.865Z,21.60
2019-05-05T09:37:06.441Z,21.50
2019-05-05T09:39:37.661Z,22.50
2019-05-05T09:42:08.168Z,22.20
2019-05-05T09:44:38.678Z,24.00
2019-05-05T09:47:09.474Z,21.40
2019-05-05T09:49:39.995Z,22.80
2019-05-05T09:52:10.920Z,24.00
2019-05-05T09:54:41.361Z,23.30
2019-05-05T09:57:11.855Z,23.10
2019-05-05T09:59:45.275Z,22.40
2019-05-05T10:02:15.806Z,21.00
2019-05-05T10:04:46.314Z,21.60
2019-05-05T10:07:16.812Z,21.40
2019-05-05T10:09:47.295Z,21.80
2019-05-05T10:12:18.403Z,22.10
2019-05-05T10:14:48.866Z,23.90
2019-05-05T10:17:20.069Z,23.40
2019-05-05T10:19:50.600Z,23.10
2019-05-05T10:22:21.087Z,21.60
2019-05-05T10:24:57.551Z,20.70
2019-05-05T10:27:41.524Z,20.00
2019-05-05T10:30:00.696Z,20.90
2019-05-05T10:32:31.203Z,21.60
2019-05-05T10:35:04.561Z,19.90
2019-05-05T10:37:35.715Z,22.40
2019-05-05T10:40:08.087Z,23.30
2019-05-05T10:43:04.408Z,23.30
2019-05-05T10:45:35.362Z,23.90
2019-05-05T10:48:05.895Z,25.50
2019-05-05T10:50:36.465Z,23.60
2019-05-05T10:53:06.954Z,23.70
2019-05-05T10:55:37.419Z,22.00
2019-05-05T10:58:08.287Z,21.90
2019-05-05T11:00:47.658Z,22.60
2019-05-05T11:03:18.160Z,22.20
2019-05-05T11:05:48.643Z,22.30
2019-05-05T11:08:24.013Z,21.70
2019-05-05T11:10:54.715Z,20.90
2019-05-05T11:13:25.139Z,21.70
2019-05-05T11:15:55.754Z,23.20
2019-05-05T11:18:26.674Z,22.00
2019-05-05T11:20:58.035Z,21.70
2019-05-05T11:23:28.823Z,22.00
2019-05-05T11:25:59.606Z,20.70
2019-05-05T11:28:30.488Z,19.50
2019-05-05T11:31:01.365Z,20.30
2019-05-05T11:33:47.466Z,20.70
2019-05-05T11:36:35.599Z,22.20
2019-05-05T11:39:08.250Z,22.70
2019-05-05T11:41:39.037Z,22.80
2019-05-05T11:44:09.571Z,23.70
2019-05-05T11:46:40.558Z,24.10
2019-05-05T11:49:11.043Z,22.70
2019-05-05T11:51:43.624Z,24.20
2019-05-05T11:54:17.445Z,23.10
2019-05-05T11:56:47.947Z,22.30
2019-05-05T11:59:18.752Z,22.40
2019-05-05T12:01:49.385Z,23.10
2019-05-05T12:04:19.993Z,26.10
2019-05-05T12:06:50.514Z,30.60
2019-05-05T12:09:33.751Z,35.50
2019-05-05T12:12:04.732Z,37.50
2019-05-05T12:14:35.371Z,39.70
2019-05-05T12:17:05.892Z,39.30
2019-05-05T12:19:36.460Z,42.20
2019-05-05T12:22:07.384Z,46.70
2019-05-05T12:24:44.157Z,41.50
2019-05-05T12:27:24.660Z,44.60
2019-05-05T12:30:03.799Z,44.30
2019-05-05T12:32:34.806Z,43.50
2019-05-05T12:35:05.828Z,45.00
2019-05-05T12:37:36.739Z,38.50
2019-05-05T12:40:08.286Z,38.40
2019-05-05T12:42:38.743Z,36.80
2019-05-05T12:45:13.787Z,35.30
2019-05-05T12:48:02.163Z,36.00
2019-05-05T12:50:33.837Z,36.60
2019-05-05T12:53:04.369Z,38.10
2019-05-05T12:55:41.355Z,38.10
2019-05-05T12:58:06.983Z,38.50
2019-05-05T13:00:39.038Z,39.70
2019-05-05T13:03:09.543Z,39.80
2019-05-05T13:05:40.032Z,41.70
2019-05-05T13:08:10.982Z,42.50
2019-05-05T13:10:41.470Z,45.60
2019-05-05T13:13:14.020Z,43.10
2019-05-05T13:15:44.372Z,40.20
2019-05-05T13:18:14.947Z,42.80
2019-05-05T13:21:01.529Z,42.20
2019-05-05T13:23:44.456Z,44.80
2019-05-05T13:26:20.974Z,46.00
2019-05-05T13:28:51.835Z,44.80
2019-05-05T13:31:23.575Z,39.50
2019-05-05T13:33:54.793Z,43.40
2019-05-05T13:36:25.545Z,40.00
2019-05-05T13:38:56.047Z,36.30
2019-05-05T13:41:26.609Z,36.50
2019-05-05T13:43:58.557Z,38.70
2019-05-05T13:46:30.845Z,40.60
2019-05-05T13:49:24.425Z,34.20
2019-05-05T13:51:54.958Z,37.40
2019-05-05T13:54:25.822Z,36.90
2019-05-05T13:56:56.383Z,36.60
2019-05-05T13:59:27.269Z,37.20
2019-05-05T14:01:57.749Z,38.80
2019-05-05T14:04:28.266Z,35.00
2019-05-05T14:06:59.084Z,35.40
2019-05-05T14:09:29.599Z,35.90
2019-05-05T14:12:00.074Z,34.70
2019-05-05T14:14:30.899Z,35.20
2019-05-05T14:17:04.258Z,37.50
2019-05-05T14:19:36.314Z,40.40
2019-05-05T14:22:06.829Z,39.00
2019-05-05T14:24:44.382Z,39.50
2019-05-05T14:27:14.621Z,40.10
2019-05-05T14:29:50.587Z,39.40
2019-05-05T14:32:23.872Z,41.90
2019-05-05T14:35:07.745Z,38.80
2019-05-05T14:37:41.906Z,37.80
2019-05-05T14:40:13.790Z,37.60
2019-05-05T14:42:44.306Z,37.60
2019-05-05T14:45:15.459Z,38.60
2019-05-05T14:47:45.907Z,39.30
2019-05-05T14:50:18.240Z,41.80
2019-05-05T14:52:48.668Z,43.60
2019-05-05T14:55:19.162Z,45.10
2019-05-05T14:57:49.735Z,44.20
2019-05-05T15:00:24.101Z,43.70
2019-05-05T15:02:54.739Z,43.40
2019-05-05T15:05:54.785Z,44.40
2019-05-05T15:08:44.307Z,43.80
2019-05-05T15:11:26.158Z,44.40
2019-05-05T15:13:56.665Z,44.90
2019-05-05T15:16:27.174Z,40.80
2019-05-05T15:18:57.592Z,40.00
2019-05-05T15:21:28.082Z,40.10
2019-05-05T15:23:58.589Z,40.50
2019-05-05T15:26:29.111Z,39.80
2019-05-05T15:29:01.709Z,39.40
2019-05-05T15:31:31.747Z,38.70
2019-05-05T15:34:04.166Z,40.20
2019-05-05T15:36:40.172Z,42.30
2019-05-05T15:39:10.725Z,45.60
2019-05-05T15:41:41.823Z,48.50
2019-05-05T15:44:13.420Z,51.00
2019-05-05T15:46:44.328Z,56.20
2019-05-05T15:49:14.889Z,59.70
2019-05-05T15:51:45.419Z,61.30
2019-05-05T15:54:15.858Z,58.20
2019-05-05T15:56:46.899Z,62.50
2019-05-05T15:59:17.390Z,67.80
2019-05-05T16:01:47.899Z,64.20
2019-05-05T16:04:20.187Z,64.00
2019-05-05T16:06:50.679Z,61.90
2019-05-05T16:09:21.178Z,59.90
2019-05-05T16:11:51.682Z,54.20
2019-05-05T16:14:23.828Z,53.80
2019-05-05T16:17:06.311Z,57.40
2019-05-05T16:20:13.923Z,59.30
2019-05-05T16:23:06.319Z,59.40
2019-05-05T16:25:36.822Z,43.50
2019-05-05T16:28:07.323Z,38.40
2019-05-05T16:30:37.829Z,37.90
2019-05-05T16:33:08.393Z,36.80
2019-05-05T16:35:38.911Z,36.80
2019-05-05T16:38:09.409Z,37.30
2019-05-05T16:40:40.059Z,36.70
2019-05-05T16:43:10.556Z,37.90
2019-05-05T16:45:41.084Z,38.00
2019-05-05T16:48:11.607Z,38.80
2019-05-05T16:50:44.120Z,40.00
2019-05-05T16:53:34.313Z,41.40
2019-05-05T16:56:04.894Z,47.60
2019-05-05T16:58:35.433Z,55.70
2019-05-05T17:01:08.983Z,61.90
2019-05-05T17:03:39.528Z,67.30
2019-05-05T17:06:09.999Z,72.00
2019-05-05T17:08:40.546Z,74.80
2019-05-05T17:11:11.030Z,77.50
2019-05-05T17:13:46.753Z,79.90
2019-05-05T17:16:36.534Z,81.00
2019-05-05T17:19:33.851Z,80.10
2019-05-05T17:22:10.823Z,79.80
2019-05-05T17:24:41.327Z,79.40
2019-05-05T17:27:13.814Z,80.20
2019-05-05T17:29:44.044Z,80.60
2019-05-05T17:32:14.549Z,79.40
2019-05-05T17:34:45.072Z,77.20
2019-05-05T17:37:15.634Z,76.80
2019-05-05T17:39:54.670Z,76.80
2019-05-05T17:42:47.367Z,76.20
2019-05-05T17:45:35.685Z,75.20
2019-05-05T17:48:10.185Z,75.20
2019-05-05T17:50:58.176Z,75.90
2019-05-05T17:53:36.930Z,77.40
2019-05-05T17:56:09.611Z,77.10
2019-05-05T17:58:40.559Z,75.80
2019-05-05T18:01:11.964Z,76.80
2019-05-05T18:03:43.667Z,75.60
2019-05-05T18:06:30.619Z,75.00
2019-05-05T18:09:09.579Z,73.90
2019-05-05T18:11:59.058Z,73.10
2019-05-05T18:14:29.946Z,72.70
2019-05-05T18:17:00.435Z,72.80
2019-05-05T18:19:30.938Z,73.80
2019-05-05T18:22:01.491Z,74.30
2019-05-05T18:24:33.695Z,76.00
2019-05-05T18:27:04.543Z,77.10
2019-05-05T18:29:35.179Z,79.30
2019-05-05T18:32:05.860Z,80.70
2019-05-05T18:34:36.362Z,82.50
2019-05-05T18:37:07.187Z,83.80
2019-05-05T18:39:37.686Z,85.50
2019-05-05T18:42:13.957Z,86.20
2019-05-05T18:44:46.954Z,86.50
2019-05-05T18:47:19.021Z,87.00
2019-05-05T18:49:49.530Z,87.80
2019-05-05T18:52:20.064Z,87.90
2019-05-05T18:54:50.581Z,88.00
2019-05-05T18:57:21.079Z,88.10
2019-05-05T18:59:51.568Z,89.30
2019-05-05T19:02:41.012Z,90.00
2019-05-05T19:05:30.372Z,90.20
2019-05-05T19:08:05.339Z,90.20
2019-05-05T19:10:35.931Z,90.10
2019-05-05T19:13:06.423Z,90.10
2019-05-05T19:15:36.934Z,90.20
2019-05-05T19:18:07.442Z,90.10
2019-05-05T19:20:50.318Z,89.80
2019-05-05T19:23:20.840Z,89.70
2019-05-05T19:25:55.870Z,89.10
2019-05-05T19:28:26.719Z,89.70
2019-05-05T19:30:59.483Z,90.00
2019-05-05T19:33:29.955Z,90.30
2019-05-05T19:36:01.584Z,90.30
2019-05-05T19:38:34.372Z,90.40
2019-05-05T19:41:04.220Z,90.40
2019-05-05T19:43:36.835Z,90.70
2019-05-05T19:46:09.363Z,91.20
2019-05-05T19:48:39.822Z,91.20
2019-05-05T19:51:14.159Z,91.40
2019-05-05T19:53:44.851Z,91.80
2019-05-05T19:56:15.223Z,92.20
2019-05-05T19:58:58.183Z,92.70
2019-05-05T20:01:17.812Z,93.00
2019-05-05T20:03:48.378Z,93.10
2019-05-05T20:06:18.953Z,93.30
2019-05-05T20:08:49.410Z,93.60
2019-05-05T20:11:19.915Z,93.60
2019-05-05T20:14:03.968Z,93.60
2019-05-05T20:16:54.657Z,93.30
2019-05-05T20:19:25.270Z,93.10
2019-05-05T20:21:56.671Z,93.50
2019-05-05T20:24:27.167Z,93.50
2019-05-05T20:26:58.269Z,93.70
2019-05-05T20:29:28.684Z,94.70
2019-05-05T20:31:59.166Z,95.10
2019-05-05T20:34:57.634Z,95.60
2019-05-05T20:37:37.143Z,96.20
2019-05-05T20:40:08.931Z,96.20
2019-05-05T20:42:39.403Z,96.10
2019-05-05T20:45:11.629Z,96.20
2019-05-05T20:47:43.968Z,96.20
2019-05-05T20:50:14.467Z,96.10
2019-05-05T20:52:44.972Z,96.20
2019-05-05T20:55:15.439Z,96.20
2019-05-05T20:57:46.038Z,96.10
2019-05-05T21:00:17.706Z,96.10
2019-05-05T21:02:48.256Z,96.10
2019-05-05T21:05:18.639Z,95.90
2019-05-05T21:07:49.098Z,95.80
2019-05-05T21:10:19.592Z,95.80
2019-05-05T21:12:50.059Z,95.70
2019-05-05T21:15:20.628Z,95.70
2019-05-05T21:17:51.099Z,95.90
2019-05-05T21:20:21.562Z,95.90
2019-05-05T21:23:00.268Z,95.90
2019-05-05T21:25:36.094Z,95.90
2019-05-05T21:28:06.956Z,96.00
2019-05-05T21:30:37.475Z,95.90
2019-05-05T21:33:07.973Z,96.20
2019-05-05T21:35:38.472Z,96.40
2019-05-05T21:38:09.275Z,96.40
2019-05-05T21:40:40.190Z,96.50
2019-05-05T21:43:10.648Z,96.80
2019-05-05T21:45:41.298Z,97.20
2019-05-05T21:48:13.644Z,97.20
2019-05-05T21:50:50.250Z,97.40
2019-05-05T21:53:27.239Z,97.20
2019-05-05T21:56:25.779Z,97.60
2019-05-05T21:58:57.724Z,97.80
2019-05-05T22:01:30.826Z,98.00
2019-05-05T22:04:03.491Z,98.20
2019-05-05T22:06:33.716Z,98.30
2019-05-05T22:09:06.922Z,98.60
2019-05-05T22:11:37.451Z,98.80
2019-05-05T22:14:09.495Z,99.00
2019-05-05T22:16:39.959Z,99.30
2019-05-05T22:19:10.499Z,99.30
2019-05-05T22:21:45.476Z,99.30
2019-05-05T22:24:17.298Z,99.30
2019-05-05T22:26:47.678Z,99.30
2019-05-05T22:29:18.171Z,99.20
2019-05-05T22:31:48.872Z,99.20
2019-05-05T22:34:19.378Z,98.90
2019-05-05T22:36:49.845Z,98.80
2019-05-05T22:39:20.366Z,98.80
2019-05-05T22:41:50.826Z,98.80
2019-05-05T22:44:21.303Z,98.60
2019-05-05T22:46:53.673Z,98.60
2019-05-05T22:49:24.278Z,98.70
2019-05-05T22:51:58.107Z,98.90
2019-05-05T22:54:28.574Z,98.80
2019-05-05T22:56:59.079Z,98.70
2019-05-05T22:59:29.549Z,98.80
2019-05-05T23:02:00.107Z,98.90
2019-05-05T23:04:47.309Z,99.10
2019-05-05T23:07:24.091Z,99.30
2019-05-05T23:09:54.723Z,99.90
2019-05-05T23:12:25.215Z,99.80
2019-05-05T23:14:55.952Z,99.90
2019-05-05T23:17:51.351Z,99.90
2019-05-05T23:21:21.007Z,99.90
2019-05-05T23:24:10.428Z,99.90
2019-05-05T23:26:43.633Z,99.90
2019-05-05T23:29:13.838Z,99.90
2019-05-05T23:31:44.585Z,99.90
2019-05-05T23:34:16.518Z,99.90
2019-05-05T23:36:46.992Z,99.90
2019-05-05T23:39:17.484Z,99.90
2019-05-05T23:41:47.978Z,99.90
2019-05-05T23:44:18.386Z,99.90
2019-05-05T23:46:48.851Z,99.90
2019-05-05T23:49:19.348Z,99.90
2019-05-05T23:51:49.847Z,99.90
2019-05-05T23:54:20.311Z,99.90
2019-05-05T23:56:50.803Z,99.90
2019-05-05T23:59:21.279Z,99.90
